createdAt,value
2019-03-29T00:00:09.055Z,1000.59
2019-03-29T00:01:09.053Z,1000.57
2019-03-29T00:02:09.045Z,1000.57
2019-03-29T00:03:09.199Z,1000.58
2019-03-29T00:04:09.025Z,1000.55
2019-03-29T00:05:09.000Z,1000.52
2019-03-29T00:06:08.993Z,1000.50
2019-03-29T00:07:08.985Z,1000.44
2019-03-29T00:08:09.272Z,1000.48
2019-03-29T00:09:08.969Z,1000.42
2019-03-29T00:10:08.955Z,1000.44
2019-03-29T00:11:08.938Z,1000.44
2019-03-29T00:12:08.926Z,1000.47
2019-03-29T00:13:08.917Z,1000.38
2019-03-29T00:14:08.905Z,1000.40
2019-03-29T00:15:08.933Z,1000.47
2019-03-29T00:16:08.885Z,1000.39
2019-03-29T00:17:08.874Z,1000.50
2019-03-29T00:18:09.969Z,1000.35
2019-03-29T00:19:08.852Z,1000.34
2019-03-29T00:20:08.848Z,1000.37
2019-03-29T00:21:08.865Z,1000.34
2019-03-29T00:22:18.710Z,1000.31
2019-03-29T00:23:08.807Z,1000.25
2019-03-29T00:24:08.803Z,1000.28
2019-03-29T00:25:08.790Z,1000.27
2019-03-29T00:26:08.776Z,1000.31
2019-03-29T00:27:08.779Z,1000.31
2019-03-29T00:28:08.757Z,1000.25
2019-03-29T00:29:08.750Z,1000.31
2019-03-29T00:30:08.733Z,1000.35
2019-03-29T00:31:08.727Z,1000.27
2019-03-29T00:32:08.752Z,1000.23
2019-03-29T00:33:08.701Z,1000.19
2019-03-29T00:34:08.697Z,1000.23
2019-03-29T00:35:08.684Z,1000.12
2019-03-29T00:36:08.669Z,1000.07
2019-03-29T00:37:08.664Z,1000.05
2019-03-29T00:38:08.690Z,1000.11
2019-03-29T00:39:08.638Z,1000.10
2019-03-29T00:40:08.633Z,1000.10
2019-03-29T00:41:08.627Z,1000.11
2019-03-29T00:42:08.604Z,1000.06
2019-03-29T00:43:09.079Z,1000.07
2019-03-29T00:44:08.597Z,999.99
2019-03-29T00:45:08.576Z,1000.06
2019-03-29T00:46:08.562Z,999.95
2019-03-29T00:47:08.559Z,999.99
2019-03-29T00:48:08.580Z,999.91
2019-03-29T00:49:08.531Z,999.91
2019-03-29T00:50:08.524Z,999.86
2019-03-29T00:51:08.513Z,999.87
2019-03-29T00:52:08.500Z,999.87
2019-03-29T00:53:18.849Z,999.83
2019-03-29T00:54:08.488Z,999.81
2019-03-29T00:55:08.470Z,999.80
2019-03-29T00:56:08.459Z,999.70
2019-03-29T00:57:08.449Z,999.69
2019-03-29T00:58:08.440Z,999.69
2019-03-29T00:59:08.453Z,999.68
2019-03-29T01:00:08.417Z,999.70
2019-03-29T01:01:08.406Z,999.66
2019-03-29T01:02:08.393Z,999.60
2019-03-29T01:03:08.388Z,999.55
2019-03-29T01:04:08.373Z,999.56
2019-03-29T01:05:08.399Z,999.55
2019-03-29T01:06:09.330Z,999.58
2019-03-29T01:07:08.346Z,999.61
2019-03-29T01:08:10.282Z,999.61
2019-03-29T01:09:08.324Z,999.59
2019-03-29T01:10:08.308Z,999.57
2019-03-29T01:11:08.471Z,999.47
2019-03-29T01:12:08.287Z,999.43
2019-03-29T01:13:08.283Z,999.47
2019-03-29T01:14:08.270Z,999.51
2019-03-29T01:15:09.054Z,999.48
2019-03-29T01:16:08.249Z,999.39
2019-03-29T01:17:08.242Z,999.37
2019-03-29T01:18:08.231Z,999.34
2019-03-29T01:19:08.220Z,999.32
2019-03-29T01:20:08.201Z,999.28
2019-03-29T01:21:08.206Z,999.18
2019-03-29T01:22:08.179Z,999.16
2019-03-29T01:23:08.171Z,999.21
2019-03-29T01:24:18.463Z,999.29
2019-03-29T01:25:08.560Z,999.23
2019-03-29T01:26:08.143Z,999.25
2019-03-29T01:27:08.169Z,999.26
2019-03-29T01:28:08.114Z,999.20
2019-03-29T01:29:08.111Z,999.24
2019-03-29T01:30:08.095Z,999.19
2019-03-29T01:31:08.083Z,999.19
2019-03-29T01:32:08.073Z,999.17
2019-03-29T01:33:08.079Z,999.16
2019-03-29T01:34:08.053Z,999.11
2019-03-29T01:35:09.084Z,999.14
2019-03-29T01:36:08.045Z,999.08
2019-03-29T01:37:08.023Z,999.11
2019-03-29T01:38:21.272Z,999.05
2019-03-29T01:39:08.999Z,999.09
2019-03-29T01:40:08.914Z,998.96
2019-03-29T01:41:07.982Z,998.91
2019-03-29T01:42:07.975Z,998.98
2019-03-29T01:43:07.956Z,999.01
2019-03-29T01:44:07.967Z,998.95
2019-03-29T01:45:07.941Z,998.95
2019-03-29T01:46:07.925Z,998.97
2019-03-29T01:47:07.913Z,998.98
2019-03-29T01:48:07.909Z,998.96
2019-03-29T01:49:07.896Z,998.92
2019-03-29T01:50:08.179Z,998.87
2019-03-29T01:51:07.876Z,998.88
2019-03-29T01:52:07.861Z,998.82
2019-03-29T01:53:07.850Z,998.75
2019-03-29T01:54:07.842Z,998.76
2019-03-29T01:55:18.433Z,998.72
2019-03-29T01:56:07.819Z,998.71
2019-03-29T01:57:07.814Z,998.68
2019-03-29T01:58:07.799Z,998.62
2019-03-29T01:59:07.791Z,998.61
2019-03-29T02:00:09.079Z,998.56
2019-03-29T02:01:07.765Z,998.56
2019-03-29T02:02:07.754Z,998.60
2019-03-29T02:03:07.746Z,998.59
2019-03-29T02:04:08.214Z,998.56
2019-03-29T02:05:07.731Z,998.58
2019-03-29T02:06:07.756Z,998.55
2019-03-29T02:07:07.706Z,998.56
2019-03-29T02:08:07.697Z,998.53
2019-03-29T02:09:07.681Z,998.61
2019-03-29T02:10:07.675Z,998.55
2019-03-29T02:11:07.665Z,998.50
2019-03-29T02:12:08.408Z,998.46
2019-03-29T02:13:07.636Z,998.49
2019-03-29T02:14:07.634Z,998.43
2019-03-29T02:15:07.615Z,998.45
2019-03-29T02:16:07.605Z,998.41
2019-03-29T02:17:07.594Z,998.43
2019-03-29T02:18:07.625Z,998.44
2019-03-29T02:19:07.574Z,998.39
2019-03-29T02:20:07.563Z,998.43
2019-03-29T02:21:07.554Z,998.45
2019-03-29T02:22:09.020Z,998.46
2019-03-29T02:23:07.533Z,998.46
2019-03-29T02:24:07.530Z,998.43
2019-03-29T02:25:07.510Z,998.41
2019-03-29T02:26:19.107Z,998.42
2019-03-29T02:27:07.489Z,998.43
2019-03-29T02:28:07.489Z,998.43
2019-03-29T02:29:07.465Z,998.41
2019-03-29T02:30:07.457Z,998.49
2019-03-29T02:31:07.445Z,998.49
2019-03-29T02:32:07.437Z,998.46
2019-03-29T02:33:07.434Z,998.52
2019-03-29T02:34:07.420Z,998.51
2019-03-29T02:35:07.413Z,998.57
2019-03-29T02:36:07.396Z,998.53
2019-03-29T02:37:07.380Z,998.51
2019-03-29T02:38:07.378Z,998.56
2019-03-29T02:39:07.514Z,998.52
2019-03-29T02:40:07.357Z,998.63
2019-03-29T02:41:07.340Z,998.61
2019-03-29T02:42:07.330Z,998.61
2019-03-29T02:43:07.320Z,998.57
2019-03-29T02:44:07.614Z,998.67
2019-03-29T02:45:07.310Z,998.68
2019-03-29T02:46:07.293Z,998.68
2019-03-29T02:47:07.290Z,998.63
2019-03-29T02:48:07.274Z,998.69
2019-03-29T02:49:07.258Z,998.70
2019-03-29T02:50:08.573Z,998.70
2019-03-29T02:51:07.247Z,998.65
2019-03-29T02:52:07.327Z,998.64
2019-03-29T02:53:07.209Z,998.64
2019-03-29T02:54:07.221Z,998.61
2019-03-29T02:55:07.193Z,998.62
2019-03-29T02:56:07.219Z,998.66
2019-03-29T02:57:17.239Z,998.68
2019-03-29T02:58:07.175Z,998.63
2019-03-29T02:59:07.161Z,998.57
2019-03-29T03:00:07.232Z,998.57
2019-03-29T03:01:07.125Z,998.59
2019-03-29T03:02:07.138Z,998.59
2019-03-29T03:03:07.105Z,998.62
2019-03-29T03:04:07.095Z,998.59
2019-03-29T03:05:07.083Z,998.54
2019-03-29T03:06:07.077Z,998.47
2019-03-29T03:07:07.302Z,998.47
2019-03-29T03:08:07.049Z,998.49
2019-03-29T03:09:14.137Z,998.52
2019-03-29T03:10:08.034Z,998.46
2019-03-29T03:11:07.027Z,998.43
2019-03-29T03:12:07.008Z,998.46
2019-03-29T03:13:07.006Z,998.45
2019-03-29T03:14:06.992Z,998.44
2019-03-29T03:15:06.979Z,998.39
2019-03-29T03:16:06.970Z,998.27
2019-03-29T03:17:06.956Z,998.16
2019-03-29T03:18:06.988Z,998.19
2019-03-29T03:19:06.938Z,998.14
2019-03-29T03:20:06.927Z,998.12
2019-03-29T03:21:06.920Z,998.10
2019-03-29T03:22:06.905Z,998.11
2019-03-29T03:23:06.898Z,998.07
2019-03-29T03:24:07.009Z,998.01
2019-03-29T03:25:06.871Z,997.95
2019-03-29T03:26:06.862Z,997.91
2019-03-29T03:27:06.856Z,998.03
2019-03-29T03:28:17.225Z,998.04
2019-03-29T03:29:06.837Z,998.00
2019-03-29T03:30:06.866Z,997.96
2019-03-29T03:31:06.812Z,998.00
2019-03-29T03:32:06.807Z,997.90
2019-03-29T03:33:06.797Z,997.95
2019-03-29T03:34:06.780Z,997.91
2019-03-29T03:35:06.773Z,997.90
2019-03-29T03:36:06.767Z,997.84
2019-03-29T03:37:06.748Z,997.76
2019-03-29T03:38:06.740Z,997.82
2019-03-29T03:39:06.724Z,997.81
2019-03-29T03:40:06.709Z,997.74
2019-03-29T03:41:07.089Z,997.81
2019-03-29T03:42:06.691Z,997.87
2019-03-29T03:43:06.681Z,997.84
2019-03-29T03:44:06.676Z,997.80
2019-03-29T03:45:06.673Z,997.76
2019-03-29T03:46:06.654Z,997.72
2019-03-29T03:47:06.679Z,997.72
2019-03-29T03:48:06.631Z,997.70
2019-03-29T03:49:06.621Z,997.64
2019-03-29T03:50:06.609Z,997.62
2019-03-29T03:51:06.602Z,997.54
2019-03-29T03:52:06.587Z,997.54
2019-03-29T03:53:06.585Z,997.51
2019-03-29T03:54:06.563Z,997.54
2019-03-29T03:55:06.567Z,997.50
2019-03-29T03:56:06.547Z,997.51
2019-03-29T03:57:06.537Z,997.46
2019-03-29T03:58:06.530Z,997.41
2019-03-29T03:59:17.208Z,997.43
2019-03-29T04:00:06.500Z,997.35
2019-03-29T04:01:06.490Z,997.35
2019-03-29T04:02:06.484Z,997.37
2019-03-29T04:03:06.640Z,997.33
2019-03-29T04:04:06.464Z,997.39
2019-03-29T04:05:06.467Z,997.48
2019-03-29T04:06:06.432Z,997.51
2019-03-29T04:07:06.425Z,997.52
2019-03-29T04:08:06.416Z,997.47
2019-03-29T04:09:06.436Z,997.48
2019-03-29T04:10:06.390Z,997.49
2019-03-29T04:11:06.413Z,997.45
2019-03-29T04:12:06.376Z,997.44
2019-03-29T04:13:06.360Z,997.37
2019-03-29T04:14:06.367Z,997.48
2019-03-29T04:15:06.521Z,997.40
2019-03-29T04:16:06.334Z,997.56
2019-03-29T04:17:06.319Z,997.49
2019-03-29T04:18:06.309Z,997.61
2019-03-29T04:19:06.294Z,997.61
2019-03-29T04:20:06.285Z,997.55
2019-03-29T04:21:06.296Z,997.59
2019-03-29T04:22:06.269Z,997.55
2019-03-29T04:23:06.267Z,997.57
2019-03-29T04:24:06.254Z,997.60
2019-03-29T04:25:06.231Z,997.68
2019-03-29T04:26:06.267Z,997.73
2019-03-29T04:27:06.226Z,997.70
2019-03-29T04:28:06.199Z,997.65
2019-03-29T04:29:06.191Z,997.69
2019-03-29T04:30:16.258Z,997.71
2019-03-29T04:31:06.171Z,997.57
2019-03-29T04:32:06.167Z,997.69
2019-03-29T04:33:10.583Z,997.65
2019-03-29T04:34:07.219Z,997.69
2019-03-29T04:35:06.130Z,997.71
2019-03-29T04:36:06.231Z,997.66
2019-03-29T04:37:06.285Z,997.72
2019-03-29T04:38:06.254Z,997.71
2019-03-29T04:39:06.095Z,997.67
2019-03-29T04:40:08.438Z,997.69
2019-03-29T04:41:06.065Z,997.65
2019-03-29T04:42:06.059Z,997.59
2019-03-29T04:43:06.081Z,997.64
2019-03-29T04:44:06.029Z,997.61
2019-03-29T04:45:06.030Z,997.64
2019-03-29T04:46:06.010Z,997.60
2019-03-29T04:47:06.611Z,997.58
2019-03-29T04:48:05.986Z,997.45
2019-03-29T04:49:06.124Z,997.37
2019-03-29T04:50:05.964Z,997.34
2019-03-29T04:51:05.959Z,997.33
2019-03-29T04:52:05.946Z,997.36
2019-03-29T04:53:05.937Z,997.28
2019-03-29T04:54:05.931Z,997.35
2019-03-29T04:55:05.919Z,997.36
2019-03-29T04:56:05.901Z,997.47
2019-03-29T04:57:05.890Z,997.64
2019-03-29T04:58:05.883Z,997.78
2019-03-29T04:59:05.910Z,997.67
2019-03-29T05:00:05.858Z,997.54
2019-03-29T05:01:17.475Z,997.48
2019-03-29T05:02:05.842Z,997.33
2019-03-29T05:03:05.830Z,997.43
2019-03-29T05:04:05.823Z,997.38
2019-03-29T05:05:05.816Z,997.33
2019-03-29T05:06:05.794Z,997.34
2019-03-29T05:07:05.785Z,997.36
2019-03-29T05:08:05.784Z,997.37
2019-03-29T05:09:05.768Z,997.38
2019-03-29T05:10:19.905Z,997.33
2019-03-29T05:11:06.782Z,997.31
2019-03-29T05:12:05.738Z,997.24
2019-03-29T05:13:05.725Z,997.34
2019-03-29T05:14:05.711Z,997.35
2019-03-29T05:15:05.703Z,997.42
2019-03-29T05:16:05.690Z,997.39
2019-03-29T05:17:05.695Z,997.28
2019-03-29T05:18:05.670Z,997.28
2019-03-29T05:19:05.661Z,997.28
2019-03-29T05:20:05.653Z,997.21
2019-03-29T05:21:05.665Z,997.22
2019-03-29T05:22:05.636Z,997.19
2019-03-29T05:23:05.621Z,997.13
2019-03-29T05:24:05.602Z,997.10
2019-03-29T05:25:05.595Z,997.04
2019-03-29T05:26:05.589Z,996.93
2019-03-29T05:27:05.593Z,996.93
2019-03-29T05:28:05.565Z,997.00
2019-03-29T05:29:05.550Z,997.04
2019-03-29T05:30:05.548Z,996.96
2019-03-29T05:31:05.535Z,996.93
2019-03-29T05:32:16.202Z,996.93
2019-03-29T05:33:05.513Z,996.83
2019-03-29T05:34:05.502Z,996.87
2019-03-29T05:35:05.491Z,996.88
2019-03-29T05:36:05.476Z,996.84
2019-03-29T05:37:05.474Z,996.87
2019-03-29T05:38:05.465Z,996.85
2019-03-29T05:39:05.443Z,996.81
2019-03-29T05:40:05.433Z,996.86
2019-03-29T05:41:05.423Z,996.80
2019-03-29T05:42:05.413Z,996.79
2019-03-29T05:43:05.408Z,996.84
2019-03-29T05:44:05.432Z,996.90
2019-03-29T05:45:05.388Z,996.85
2019-03-29T05:46:05.370Z,996.83
2019-03-29T05:47:05.365Z,996.77
2019-03-29T05:48:05.352Z,996.85
2019-03-29T05:49:05.336Z,996.84
2019-03-29T05:50:05.336Z,996.83
2019-03-29T05:51:05.315Z,996.75
2019-03-29T05:52:05.310Z,996.83
2019-03-29T05:53:05.328Z,996.76
2019-03-29T05:54:05.284Z,996.74
2019-03-29T05:55:05.311Z,996.81
2019-03-29T05:56:05.269Z,996.78
2019-03-29T05:57:05.255Z,996.84
2019-03-29T05:58:05.248Z,996.85
2019-03-29T05:59:05.231Z,996.86
2019-03-29T06:00:05.235Z,996.84
2019-03-29T06:01:05.221Z,996.78
2019-03-29T06:02:05.209Z,996.79
2019-03-29T06:03:15.549Z,996.82
2019-03-29T06:04:05.176Z,996.73
2019-03-29T06:05:05.171Z,996.74
2019-03-29T06:06:05.168Z,996.76
2019-03-29T06:07:05.158Z,996.75
2019-03-29T06:08:05.143Z,996.75
2019-03-29T06:09:05.130Z,996.73
2019-03-29T06:10:05.114Z,996.68
2019-03-29T06:11:05.107Z,996.61
2019-03-29T06:12:05.104Z,996.61
2019-03-29T06:13:05.083Z,996.63
2019-03-29T06:14:05.087Z,996.55
2019-03-29T06:15:05.065Z,996.52
2019-03-29T06:16:06.240Z,996.46
2019-03-29T06:17:05.043Z,996.41
2019-03-29T06:18:05.039Z,996.45
2019-03-29T06:19:05.058Z,996.41
2019-03-29T06:20:05.011Z,996.29
2019-03-29T06:21:05.000Z,996.39
2019-03-29T06:22:04.989Z,996.43
2019-03-29T06:23:04.978Z,996.45
2019-03-29T06:24:04.965Z,996.35
2019-03-29T06:25:04.998Z,996.33
2019-03-29T06:26:04.946Z,996.30
2019-03-29T06:27:04.933Z,996.34
2019-03-29T06:28:04.933Z,996.36
2019-03-29T06:29:04.916Z,996.29
2019-03-29T06:30:04.904Z,996.23
2019-03-29T06:31:04.930Z,996.22
2019-03-29T06:32:04.884Z,996.15
2019-03-29T06:33:04.876Z,996.14
2019-03-29T06:34:17.106Z,996.12
2019-03-29T06:35:04.848Z,996.06
2019-03-29T06:36:04.839Z,995.98
2019-03-29T06:37:04.842Z,995.90
2019-03-29T06:38:04.817Z,995.84
2019-03-29T06:39:04.803Z,995.84
2019-03-29T06:40:04.792Z,995.82
2019-03-29T06:41:04.826Z,995.80
2019-03-29T06:42:04.773Z,995.79
2019-03-29T06:43:04.764Z,995.76
2019-03-29T06:44:04.756Z,995.84
2019-03-29T06:45:04.742Z,995.82
2019-03-29T06:46:04.728Z,995.80
2019-03-29T06:47:04.760Z,995.86
2019-03-29T06:48:04.711Z,995.79
2019-03-29T06:49:04.697Z,995.85
2019-03-29T06:50:04.687Z,995.80
2019-03-29T06:51:04.679Z,995.84
2019-03-29T06:52:04.666Z,995.74
2019-03-29T06:53:04.708Z,995.75
2019-03-29T06:54:04.650Z,995.59
2019-03-29T06:55:04.635Z,995.55
2019-03-29T06:56:04.622Z,995.61
2019-03-29T06:57:04.622Z,995.54
2019-03-29T06:58:04.609Z,995.50
2019-03-29T06:59:04.599Z,995.44
2019-03-29T07:00:04.588Z,995.48
2019-03-29T07:01:04.574Z,995.41
2019-03-29T07:02:04.569Z,995.48
2019-03-29T07:03:04.588Z,995.36
2019-03-29T07:04:04.537Z,995.48
2019-03-29T07:05:16.024Z,995.39
2019-03-29T07:06:04.519Z,995.38
2019-03-29T07:07:04.511Z,995.38
2019-03-29T07:08:04.497Z,995.32
2019-03-29T07:09:04.536Z,995.39
2019-03-29T07:10:04.480Z,995.37
2019-03-29T07:11:16.710Z,995.39
2019-03-29T07:12:05.456Z,995.42
2019-03-29T07:13:04.448Z,995.37
2019-03-29T07:14:04.433Z,995.33
2019-03-29T07:15:04.435Z,995.36
2019-03-29T07:16:04.409Z,995.33
2019-03-29T07:17:04.401Z,995.28
2019-03-29T07:18:04.393Z,995.36
2019-03-29T07:19:05.120Z,995.31
2019-03-29T07:20:04.415Z,995.29
2019-03-29T07:21:04.357Z,995.21
2019-03-29T07:22:04.347Z,995.21
2019-03-29T07:23:04.341Z,995.21
2019-03-29T07:24:04.330Z,995.19
2019-03-29T07:25:04.321Z,995.19
2019-03-29T07:26:04.317Z,995.19
2019-03-29T07:27:04.306Z,995.10
2019-03-29T07:28:04.283Z,995.09
2019-03-29T07:29:04.274Z,995.06
2019-03-29T07:30:04.272Z,995.22
2019-03-29T07:31:04.275Z,995.16
2019-03-29T07:32:04.244Z,995.19
2019-03-29T07:33:04.229Z,995.15
2019-03-29T07:34:04.217Z,995.11
2019-03-29T07:35:04.213Z,995.20
2019-03-29T07:36:14.937Z,995.22
2019-03-29T07:37:05.861Z,995.12
2019-03-29T07:38:04.179Z,995.13
2019-03-29T07:39:04.175Z,995.10
2019-03-29T07:40:04.154Z,995.14
2019-03-29T07:41:04.149Z,995.12
2019-03-29T07:42:04.308Z,995.12
2019-03-29T07:43:04.129Z,995.11
2019-03-29T07:44:04.116Z,995.12
2019-03-29T07:45:04.099Z,995.01
2019-03-29T07:46:04.093Z,994.97
2019-03-29T07:47:04.089Z,994.87
2019-03-29T07:48:04.248Z,994.80
2019-03-29T07:49:04.066Z,994.85
2019-03-29T07:50:04.050Z,994.76
2019-03-29T07:51:04.042Z,994.78
2019-03-29T07:52:04.033Z,994.81
2019-03-29T07:53:04.015Z,994.78
2019-03-29T07:54:04.015Z,994.87
2019-03-29T07:55:03.993Z,994.86
2019-03-29T07:56:03.985Z,994.85
2019-03-29T07:57:03.973Z,994.83
2019-03-29T07:58:03.974Z,994.74
2019-03-29T07:59:03.972Z,994.75
2019-03-29T08:00:03.945Z,994.75
2019-03-29T08:01:03.932Z,994.78
2019-03-29T08:02:03.917Z,994.75
2019-03-29T08:03:03.913Z,994.81
2019-03-29T08:04:03.903Z,994.85
2019-03-29T08:05:03.905Z,994.83
2019-03-29T08:06:03.875Z,994.88
2019-03-29T08:07:26.716Z,994.94
2019-03-29T08:08:04.854Z,994.94
2019-03-29T08:09:03.847Z,994.90
2019-03-29T08:10:04.265Z,994.97
2019-03-29T08:11:03.819Z,995.07
2019-03-29T08:12:03.816Z,995.01
2019-03-29T08:13:03.798Z,995.00
2019-03-29T08:14:03.794Z,994.95
2019-03-29T08:15:03.791Z,995.01
2019-03-29T08:16:06.594Z,995.06
2019-03-29T08:17:03.756Z,995.03
2019-03-29T08:18:03.750Z,994.96
2019-03-29T08:19:03.738Z,995.03
2019-03-29T08:20:36.525Z,994.96
2019-03-29T08:21:04.710Z,994.98
2019-03-29T08:22:03.763Z,994.96
2019-03-29T08:23:03.692Z,995.09
2019-03-29T08:24:03.682Z,995.05
2019-03-29T08:25:03.668Z,995.06
2019-03-29T08:26:03.705Z,995.00
2019-03-29T08:27:03.652Z,994.94
2019-03-29T08:28:04.383Z,994.88
2019-03-29T08:29:03.630Z,994.86
2019-03-29T08:30:03.616Z,994.89
2019-03-29T08:31:03.607Z,994.93
2019-03-29T08:32:03.630Z,994.99
2019-03-29T08:33:03.583Z,995.07
2019-03-29T08:34:03.621Z,995.06
2019-03-29T08:35:03.566Z,995.08
2019-03-29T08:36:03.557Z,995.05
2019-03-29T08:37:03.547Z,995.07
2019-03-29T08:38:14.438Z,995.06
2019-03-29T08:39:03.524Z,995.05
2019-03-29T08:40:03.526Z,995.01
2019-03-29T08:41:03.495Z,994.96
2019-03-29T08:42:03.534Z,994.96
2019-03-29T08:43:03.520Z,994.89
2019-03-29T08:44:03.471Z,994.88
2019-03-29T08:45:03.460Z,994.92
2019-03-29T08:46:03.451Z,994.92
2019-03-29T08:47:03.434Z,994.93
2019-03-29T08:48:06.553Z,994.97
2019-03-29T08:49:03.449Z,994.90
2019-03-29T08:50:03.404Z,994.94
2019-03-29T08:51:03.392Z,994.94
2019-03-29T08:52:03.389Z,994.99
2019-03-29T08:53:03.369Z,994.94
2019-03-29T08:54:03.355Z,995.00
2019-03-29T08:55:03.361Z,994.98
2019-03-29T08:56:03.343Z,995.05
2019-03-29T08:57:03.332Z,994.99
2019-03-29T08:58:03.320Z,994.92
2019-03-29T08:59:03.308Z,994.87
2019-03-29T09:00:03.478Z,994.79
2019-03-29T09:01:03.285Z,994.80
2019-03-29T09:02:03.273Z,994.87
2019-03-29T09:03:03.264Z,994.87
2019-03-29T09:04:05.841Z,994.86
2019-03-29T09:05:03.240Z,994.96
2019-03-29T09:06:03.239Z,994.94
2019-03-29T09:07:03.219Z,994.98
2019-03-29T09:08:03.205Z,994.95
2019-03-29T09:09:14.255Z,994.92
2019-03-29T09:10:03.191Z,994.94
2019-03-29T09:11:03.180Z,994.95
2019-03-29T09:12:13.659Z,994.96
2019-03-29T09:13:04.670Z,994.88
2019-03-29T09:14:03.150Z,994.81
2019-03-29T09:15:04.077Z,994.90
2019-03-29T09:16:03.139Z,994.87
2019-03-29T09:17:03.122Z,994.79
2019-03-29T09:18:03.116Z,994.81
2019-03-29T09:19:03.098Z,994.78
2019-03-29T09:20:03.086Z,994.87
2019-03-29T09:21:10.514Z,994.81
2019-03-29T09:22:03.054Z,994.85
2019-03-29T09:23:03.091Z,994.71
2019-03-29T09:24:03.040Z,994.72
2019-03-29T09:25:03.025Z,994.70
2019-03-29T09:26:03.016Z,994.71
2019-03-29T09:27:03.045Z,994.66
2019-03-29T09:28:02.997Z,994.62
2019-03-29T09:29:02.982Z,994.62
2019-03-29T09:30:05.120Z,994.66
2019-03-29T09:31:02.959Z,994.61
2019-03-29T09:32:02.954Z,994.51
2019-03-29T09:33:02.980Z,994.61
2019-03-29T09:34:02.976Z,994.56
2019-03-29T09:35:02.916Z,994.54
2019-03-29T09:36:04.932Z,994.56
2019-03-29T09:37:02.897Z,994.49
2019-03-29T09:38:02.887Z,994.49
2019-03-29T09:39:02.889Z,994.45
2019-03-29T09:40:02.872Z,994.48
2019-03-29T09:41:02.859Z,994.49
2019-03-29T09:42:02.847Z,994.48
2019-03-29T09:43:09.135Z,994.43
2019-03-29T09:44:03.907Z,994.49
2019-03-29T09:45:02.810Z,994.42
2019-03-29T09:46:03.480Z,994.42
2019-03-29T09:47:02.798Z,994.40
2019-03-29T09:48:02.786Z,994.45
2019-03-29T09:49:02.770Z,994.46
2019-03-29T09:50:02.805Z,994.46
2019-03-29T09:51:02.751Z,994.42
2019-03-29T09:52:12.689Z,994.36
2019-03-29T09:53:02.729Z,994.39
2019-03-29T09:54:02.721Z,994.40
2019-03-29T09:55:02.703Z,994.42
2019-03-29T09:56:02.883Z,994.32
2019-03-29T09:57:02.692Z,994.37
2019-03-29T09:58:02.673Z,994.34
2019-03-29T09:59:02.667Z,994.39
2019-03-29T10:00:02.662Z,994.44
2019-03-29T10:01:02.647Z,994.37
2019-03-29T10:02:02.637Z,994.38
2019-03-29T10:03:02.624Z,994.39
2019-03-29T10:04:02.610Z,994.34
2019-03-29T10:05:02.602Z,994.35
2019-03-29T10:06:02.593Z,994.23
2019-03-29T10:07:02.619Z,994.23
2019-03-29T10:08:02.572Z,994.24
2019-03-29T10:09:02.561Z,994.17
2019-03-29T10:10:02.549Z,994.13
2019-03-29T10:11:02.538Z,994.08
2019-03-29T10:12:02.524Z,994.14
2019-03-29T10:13:02.560Z,994.06
2019-03-29T10:14:02.501Z,994.04
2019-03-29T10:15:02.495Z,994.03
2019-03-29T10:16:02.478Z,994.03
2019-03-29T10:17:02.476Z,993.98
2019-03-29T10:18:02.463Z,994.07
2019-03-29T10:19:02.487Z,993.96
2019-03-29T10:20:02.442Z,993.94
2019-03-29T10:21:02.442Z,994.02
2019-03-29T10:22:02.420Z,993.95
2019-03-29T10:23:12.517Z,993.99
2019-03-29T10:24:02.440Z,993.91
2019-03-29T10:25:02.808Z,994.01
2019-03-29T10:26:02.380Z,993.99
2019-03-29T10:27:02.371Z,994.04
2019-03-29T10:28:02.354Z,994.00
2019-03-29T10:29:02.349Z,993.99
2019-03-29T10:30:02.507Z,993.98
2019-03-29T10:31:02.318Z,993.94
2019-03-29T10:32:05.493Z,993.89
2019-03-29T10:33:03.297Z,993.89
2019-03-29T10:34:02.290Z,993.95
2019-03-29T10:35:02.281Z,993.91
2019-03-29T10:36:02.277Z,993.88
2019-03-29T10:37:02.259Z,993.89
2019-03-29T10:38:02.245Z,993.93
2019-03-29T10:39:02.250Z,993.86
2019-03-29T10:40:02.226Z,993.90
2019-03-29T10:41:02.385Z,993.91
2019-03-29T10:42:02.204Z,993.98
2019-03-29T10:43:02.191Z,993.96
2019-03-29T10:44:02.188Z,993.99
2019-03-29T10:45:02.169Z,993.90
2019-03-29T10:46:02.165Z,993.95
2019-03-29T10:47:02.328Z,994.04
2019-03-29T10:48:02.141Z,993.97
2019-03-29T10:49:02.127Z,994.01
2019-03-29T10:50:02.116Z,993.95
2019-03-29T10:51:02.105Z,993.95
2019-03-29T10:52:02.094Z,993.96
2019-03-29T10:53:02.098Z,994.02
2019-03-29T10:54:12.960Z,993.84
2019-03-29T10:55:02.074Z,993.93
2019-03-29T10:56:02.058Z,993.82
2019-03-29T10:57:02.042Z,993.83
2019-03-29T10:58:02.046Z,993.77
2019-03-29T10:59:02.021Z,993.71
2019-03-29T11:00:02.013Z,993.72
2019-03-29T11:01:01.998Z,993.73
2019-03-29T11:02:01.996Z,993.70
2019-03-29T11:03:02.016Z,993.68
2019-03-29T11:04:01.968Z,993.63
2019-03-29T11:05:01.981Z,993.65
2019-03-29T11:06:01.954Z,993.60
2019-03-29T11:07:01.944Z,993.58
2019-03-29T11:08:01.924Z,993.65
2019-03-29T11:09:01.952Z,993.66
2019-03-29T11:10:01.900Z,993.60
2019-03-29T11:11:01.901Z,993.73
2019-03-29T11:12:01.880Z,993.76
2019-03-29T11:13:12.484Z,993.75
2019-03-29T11:14:02.878Z,993.71
2019-03-29T11:15:01.853Z,993.73
2019-03-29T11:16:01.850Z,993.70
2019-03-29T11:17:01.826Z,993.65
2019-03-29T11:18:01.845Z,993.67
2019-03-29T11:19:01.814Z,993.62
2019-03-29T11:20:01.813Z,993.63
2019-03-29T11:21:01.783Z,993.66
2019-03-29T11:22:01.787Z,993.68
2019-03-29T11:23:01.770Z,993.64
2019-03-29T11:24:01.756Z,993.69
2019-03-29T11:25:12.695Z,993.61
2019-03-29T11:26:01.738Z,993.53
2019-03-29T11:27:01.724Z,993.49
2019-03-29T11:28:01.710Z,993.50
2019-03-29T11:29:01.700Z,993.54
2019-03-29T11:30:01.707Z,993.54
2019-03-29T11:31:01.683Z,993.54
2019-03-29T11:32:01.668Z,993.50
2019-03-29T11:33:01.655Z,993.55
2019-03-29T11:34:01.651Z,993.53
2019-03-29T11:35:01.678Z,993.54
2019-03-29T11:36:01.622Z,993.56
2019-03-29T11:37:01.615Z,993.57
2019-03-29T11:38:01.605Z,993.53
2019-03-29T11:39:01.596Z,993.61
2019-03-29T11:40:01.589Z,993.54
2019-03-29T11:41:01.588Z,993.56
2019-03-29T11:42:03.515Z,993.65
2019-03-29T11:43:01.549Z,993.60
2019-03-29T11:44:01.536Z,993.61
2019-03-29T11:45:01.530Z,993.56
2019-03-29T11:46:01.514Z,993.61
2019-03-29T11:47:01.521Z,993.67
2019-03-29T11:48:08.229Z,993.63
2019-03-29T11:49:02.487Z,993.63
2019-03-29T11:50:01.476Z,993.64
2019-03-29T11:51:01.466Z,993.62
2019-03-29T11:52:01.489Z,993.58
2019-03-29T11:53:01.442Z,993.58
2019-03-29T11:54:01.437Z,993.64
2019-03-29T11:55:01.420Z,993.69
2019-03-29T11:56:11.506Z,993.63
2019-03-29T11:57:01.401Z,993.66
2019-03-29T11:58:01.431Z,993.66
2019-03-29T11:59:01.382Z,993.69
2019-03-29T12:00:01.366Z,993.73
2019-03-29T12:01:01.354Z,993.63
2019-03-29T12:02:01.346Z,993.63
2019-03-29T12:03:01.339Z,993.61
2019-03-29T12:04:01.368Z,993.68
2019-03-29T12:05:01.314Z,993.67
2019-03-29T12:06:01.309Z,993.68
2019-03-29T12:07:03.593Z,993.66
2019-03-29T12:08:01.282Z,993.69
2019-03-29T12:09:01.272Z,993.68
2019-03-29T12:10:01.269Z,993.63
2019-03-29T12:11:01.249Z,993.60
2019-03-29T12:12:01.246Z,993.57
2019-03-29T12:13:01.235Z,993.54
2019-03-29T12:14:02.345Z,993.56
2019-03-29T12:15:01.246Z,993.58
2019-03-29T12:16:01.196Z,993.66
2019-03-29T12:17:01.190Z,993.52
2019-03-29T12:18:01.180Z,993.56
2019-03-29T12:19:01.170Z,993.50
2019-03-29T12:20:01.152Z,993.60
2019-03-29T12:21:01.158Z,993.59
2019-03-29T12:22:01.134Z,993.57
2019-03-29T12:23:01.121Z,993.56
2019-03-29T12:24:01.113Z,993.56
2019-03-29T12:25:01.106Z,993.50
2019-03-29T12:26:01.089Z,993.60
2019-03-29T12:27:11.170Z,993.62